Time;durP1;ratioP1;P1;durP2;ratioP2;P2;SDS_P1;SDS_P2;PMS_P1;PMS_P2;Temp;Humidity;BMP_temperature;BMP_pressure;BME280_temperature;BME280_humidity;BME280_pressure;Samples;Min_cycle;Max_cycle;Signal;HPM_P1;HPM_P2
2022/06/30 00:00:26;;;;;;;3.40;1.77;;;;;;;;;;4998643;28;20209;-60
2022/06/30 00:02:54;;;;;;;2.33;1.77;;;;;;;;;;5008836;28;20695;-60
2022/06/30 00:05:22;;;;;;;1.53;1.30;;;;;;;;;;5000360;28;20224;-60
2022/06/30 00:07:50;;;;;;;3.67;1.70;;;;;;;;;;4998538;28;20244;-60
2022/06/30 00:10:18;;;;;;;2.93;1.70;;;;;;;;;;4998327;28;20244;-60
2022/06/30 00:12:46;;;;;;;1.60;1.50;;;;;;;;;;4997355;28;20255;-60
2022/06/30 00:15:16;;;;;;;1.70;1.60;;;;;;;;;;4998392;28;20236;-60
2022/06/30 00:17:44;;;;;;;1.43;1.33;;;;;;;;;;4998095;28;20219;-60
2022/06/30 00:20:12;;;;;;;1.60;1.50;;;;;;;;;;5004519;28;20238;-59
2022/06/30 00:22:40;;;;;;;5.37;1.93;;;;;;;;;;5017700;28;20244;-60
2022/06/30 00:25:08;;;;;;;2.73;1.67;;;;;;;;;;5022805;28;20656;-60
2022/06/30 00:27:36;;;;;;;4.40;2.07;;;;;;;;;;4998039;28;20211;-60
2022/06/30 00:30:04;;;;;;;1.93;1.70;;;;;;;;;;4998116;28;20245;-59
2022/06/30 00:32:34;;;;;;;9.00;2.00;;;;;;;;;;4998129;28;20242;-59
2022/06/30 00:35:02;;;;;;;3.27;1.93;;;;;;;;;;5006832;28;20269;-59
2022/06/30 00:37:30;;;;;;;1.67;1.57;;;;;;;;;;4998006;28;20239;-60
2022/06/30 00:39:58;;;;;;;2.27;1.70;;;;;;;;;;4998254;28;20248;-59
2022/06/30 00:42:26;;;;;;;1.87;1.70;;;;;;;;;;4997913;28;20213;-60
2022/06/30 00:44:54;;;;;;;3.57;1.93;;;;;;;;;;5013126;28;20237;-59
2022/06/30 00:47:22;;;;;;;2.53;1.70;;;;;;;;;;5017662;28;20219;-59
2022/06/30 00:49:51;;;;;;;2.20;1.53;;;;;;;;;;5017289;28;20384;-60
2022/06/30 00:52:19;;;;;;;2.33;1.60;;;;;;;;;;5017302;28;20210;-60
2022/06/30 00:54:49;;;;;;;1.70;1.60;;;;;;;;;;5017496;28;20254;-60
2022/06/30 00:57:18;;;;;;;2.87;1.53;;;;;;;;;;5017277;28;20244;-60
2022/06/30 00:59:48;;;;;;;1.97;1.50;;;;;;;;;;5017555;28;20242;-59
2022/06/30 01:02:16;;;;;;;4.50;1.50;;;;;;;;;;5017244;28;20274;-59
2022/06/30 01:04:46;;;;;;;1.40;1.30;;;;;;;;;;5004789;28;20235;-59
2022/06/30 01:07:17;;;;;;;1.80;1.70;;;;;;;;;;5004250;28;20293;-60
2022/06/30 01:12:43;;;;;;;3.17;1.80;;;;;;;;;;5017279;28;20246;-60
2022/06/30 01:15:12;;;;;;;4.20;1.77;;;;;;;;;;5017525;28;20219;-59
2022/06/30 01:17:40;;;;;;;4.97;1.90;;;;;;;;;;5017419;28;20215;-59
2022/06/30 01:20:09;;;;;;;3.17;2.13;;;;;;;;;;5017231;28;20214;-59
2022/06/30 01:22:38;;;;;;;1.37;1.27;;;;;;;;;;5017293;28;20211;-59
2022/06/30 01:25:07;;;;;;;4.43;2.73;;;;;;;;;;4998527;28;20232;-60
2022/06/30 01:27:35;;;;;;;2.43;1.50;;;;;;;;;;5000997;28;20672;-60
2022/06/30 01:30:04;;;;;;;1.63;1.53;;;;;;;;;;5001258;28;20228;-60
2022/06/30 01:32:32;;;;;;;2.30;2.00;;;;;;;;;;5001065;28;20667;-60
2022/06/30 01:35:00;;;;;;;3.63;1.63;;;;;;;;;;5009124;28;20640;-60
2022/06/30 01:37:28;;;;;;;3.30;1.70;;;;;;;;;;5001236;28;20212;-59
2022/06/30 01:39:57;;;;;;;2.30;1.33;;;;;;;;;;5001189;28;20239;-59
2022/06/30 01:42:25;;;;;;;3.70;1.50;;;;;;;;;;5000931;28;20221;-60
2022/06/30 01:44:53;;;;;;;2.40;1.37;;;;;;;;;;5016381;28;20242;-60
2022/06/30 01:47:21;;;;;;;3.13;1.30;;;;;;;;;;5020390;28;20327;-59
2022/06/30 01:49:49;;;;;;;2.03;1.40;;;;;;;;;;5020440;28;20249;-60
2022/06/30 01:52:17;;;;;;;3.17;1.43;;;;;;;;;;5020533;28;20245;-60
2022/06/30 01:54:45;;;;;;;7.80;1.47;;;;;;;;;;5020349;28;20255;-60
2022/06/30 01:57:15;;;;;;;2.37;1.33;;;;;;;;;;5020150;28;20238;-60
2022/06/30 01:59:43;;;;;;;1.17;1.07;;;;;;;;;;5020226;28;20239;-59
2022/06/30 02:02:11;;;;;;;4.53;1.30;;;;;;;;;;5019995;28;20628;-60
2022/06/30 02:04:47;;;;;;;3.03;1.40;;;;;;;;;;5020007;28;20273;-59
2022/06/30 02:07:16;;;;;;;3.27;1.40;;;;;;;;;;5000694;28;20264;-59
2022/06/30 02:09:44;;;;;;;1.83;1.40;;;;;;;;;;5000384;28;20240;-60
2022/06/30 02:14:59;;;;;;;1.47;1.30;;;;;;;;;;5000130;28;20363;-60
2022/06/30 02:17:27;;;;;;;2.50;1.20;;;;;;;;;;5000265;28;20213;-60
2022/06/30 02:19:55;;;;;;;1.73;1.30;;;;;;;;;;5000266;28;20238;-60
2022/06/30 02:22:23;;;;;;;2.43;1.40;;;;;;;;;;5000282;28;20249;-60
2022/06/30 02:24:51;;;;;;;3.60;1.50;;;;;;;;;;5000031;28;20238;-60
2022/06/30 02:27:20;;;;;;;1.80;1.57;;;;;;;;;;5000189;28;20238;-59
2022/06/30 02:29:48;;;;;;;3.40;1.37;;;;;;;;;;5000141;28;20243;-60
2022/06/30 02:32:18;;;;;;;2.00;1.30;;;;;;;;;;5000391;28;20244;-60
2022/06/30 02:34:46;;;;;;;1.80;1.17;;;;;;;;;;5007501;28;20223;-60
2022/06/30 02:37:14;;;;;;;2.73;1.27;;;;;;;;;;4999325;28;20271;-60
2022/06/30 02:39:42;;;;;;;2.60;1.70;;;;;;;;;;4999869;28;20215;-60
2022/06/30 02:42:10;;;;;;;2.67;1.50;;;;;;;;;;4999858;28;20208;-60
2022/06/30 02:44:38;;;;;;;2.20;1.20;;;;;;;;;;5012852;28;20325;-59
2022/06/30 02:47:06;;;;;;;3.80;1.80;;;;;;;;;;5019108;28;20211;-59
2022/06/30 02:49:37;;;;;;;2.27;1.63;;;;;;;;;;5019032;28;20219;-60
2022/06/30 02:52:05;;;;;;;2.73;1.67;;;;;;;;;;5019007;28;20210;-60
2022/06/30 02:54:33;;;;;;;2.27;2.10;;;;;;;;;;5019038;28;20656;-60
2022/06/30 02:57:01;;;;;;;1.57;1.47;;;;;;;;;;5019115;28;20246;-60
2022/06/30 02:59:29;;;;;;;3.30;1.70;;;;;;;;;;5019335;28;20241;-60
2022/06/30 03:01:57;;;;;;;3.63;1.97;;;;;;;;;;5018912;28;20202;-60
2022/06/30 03:04:25;;;;;;;3.10;1.40;;;;;;;;;;5008587;28;20645;-60
2022/06/30 03:06:55;;;;;;;2.70;2.00;;;;;;;;;;4999231;28;20210;-60
2022/06/30 03:09:24;;;;;;;3.17;1.73;;;;;;;;;;4999470;28;20218;-60
2022/06/30 03:11:52;;;;;;;3.13;1.60;;;;;;;;;;4999128;28;20621;-60
2022/06/30 03:14:20;;;;;;;6.17;1.70;;;;;;;;;;4999620;28;20239;-60
2022/06/30 03:16:49;;;;;;;3.47;1.63;;;;;;;;;;4999269;28;20216;-60
2022/06/30 03:19:17;;;;;;;2.53;1.60;;;;;;;;;;4999091;28;20250;-60
2022/06/30 03:21:45;;;;;;;2.47;1.67;;;;;;;;;;4999219;28;20245;-59
2022/06/30 03:24:14;;;;;;;1.70;1.60;;;;;;;;;;5024307;28;20271;-60
2022/06/30 03:26:42;;;;;;;2.00;1.60;;;;;;;;;;4999056;28;20298;-60
2022/06/30 03:29:10;;;;;;;2.27;1.57;;;;;;;;;;4999054;28;20242;-60
2022/06/30 03:31:38;;;;;;;2.13;1.30;;;;;;;;;;4999134;28;20210;-60
2022/06/30 03:34:06;;;;;;;1.90;1.50;;;;;;;;;;5007074;28;20229;-60
2022/06/30 03:36:34;;;;;;;2.37;1.20;;;;;;;;;;5009909;28;20201;-60
2022/06/30 03:39:02;;;;;;;2.10;1.70;;;;;;;;;;5009487;28;20268;-60
2022/06/30 03:41:32;;;;;;;1.57;1.30;;;;;;;;;;5011634;28;20247;-60
2022/06/30 03:44:00;;;;;;;2.20;1.73;;;;;;;;;;5012726;28;20588;-60
2022/06/30 03:46:28;;;;;;;2.57;1.20;;;;;;;;;;5009604;28;20260;-60
2022/06/30 03:48:56;;;;;;;3.10;1.43;;;;;;;;;;5008406;28;20251;-60
2022/06/30 03:51:24;;;;;;;2.17;1.53;;;;;;;;;;5009649;28;20234;-60
2022/06/30 03:54:04;;;;;;;4.00;1.50;;;;;;;;;;5010984;28;20217;-60
2022/06/30 03:56:34;;;;;;;3.33;1.30;;;;;;;;;;5010083;28;21595;-60
2022/06/30 03:59:02;;;;;;;2.47;1.40;;;;;;;;;;5009793;28;20727;-60
2022/06/30 04:01:30;;;;;;;4.70;1.70;;;;;;;;;;5010032;28;20203;-60
2022/06/30 04:03:57;;;;;;;2.70;1.70;;;;;;;;;;5010944;28;20221;-60
2022/06/30 04:06:30;;;;;;;2.77;1.50;;;;;;;;;;5008496;28;20692;-60
2022/06/30 04:08:58;;;;;;;2.83;1.50;;;;;;;;;;5009295;28;20288;-60
2022/06/30 04:11:27;;;;;;;4.23;1.50;;;;;;;;;;5009025;28;20201;-60
2022/06/30 04:13:56;;;;;;;2.33;1.20;;;;;;;;;;5011005;28;20233;-60
2022/06/30 04:16:24;;;;;;;1.27;1.17;;;;;;;;;;5008833;28;20194;-60
2022/06/30 04:18:54;;;;;;;2.63;1.50;;;;;;;;;;5010619;28;20560;-61
2022/06/30 04:21:22;;;;;;;2.30;1.40;;;;;;;;;;5009315;28;20208;-60
2022/06/30 04:23:50;;;;;;;3.90;1.40;;;;;;;;;;5010640;28;20258;-60
2022/06/30 04:26:18;;;;;;;2.60;1.40;;;;;;;;;;5009306;28;20248;-60
2022/06/30 04:28:47;;;;;;;3.03;1.20;;;;;;;;;;5009468;28;20204;-60
2022/06/30 04:34:02;;;;;;;1.33;1.23;;;;;;;;;;5012407;28;20711;-60
2022/06/30 04:36:30;;;;;;;1.40;1.30;;;;;;;;;;5010114;28;20246;-60
2022/06/30 04:38:58;;;;;;;3.20;1.83;;;;;;;;;;5009513;28;20308;-60
2022/06/30 04:41:25;;;;;;;3.17;2.00;;;;;;;;;;5008963;28;20208;-60
2022/06/30 04:43:54;;;;;;;1.97;1.87;;;;;;;;;;5011698;28;20256;-60
2022/06/30 04:46:24;;;;;;;3.40;1.97;;;;;;;;;;5009289;28;20261;-60
2022/06/30 04:48:52;;;;;;;3.23;1.80;;;;;;;;;;5008724;28;20205;-60
2022/06/30 04:51:20;;;;;;;4.67;1.93;;;;;;;;;;5003513;28;20261;-60
2022/06/30 04:53:48;;;;;;;2.80;2.30;;;;;;;;;;4997861;28;20230;-60
2022/06/30 04:56:17;;;;;;;2.87;1.67;;;;;;;;;;4997940;28;20256;-60
2022/06/30 04:58:45;;;;;;;2.73;1.80;;;;;;;;;;5001727;28;20245;-60
2022/06/30 05:01:14;;;;;;;3.50;1.90;;;;;;;;;;5013245;28;20230;-60
2022/06/30 05:03:43;;;;;;;6.50;2.20;;;;;;;;;;5013024;28;20220;-60
2022/06/30 05:06:11;;;;;;;2.40;1.80;;;;;;;;;;5013138;28;20223;-60
2022/06/30 05:08:40;;;;;;;2.90;1.40;;;;;;;;;;5017016;28;20212;-60
2022/06/30 05:11:08;;;;;;;17.50;9.03;;;;;;;;;;5012038;28;20565;-60
2022/06/30 05:13:36;;;;;;;2.30;1.67;;;;;;;;;;5013998;28;20219;-60
2022/06/30 05:16:04;;;;;;;3.50;1.93;;;;;;;;;;5013794;28;20200;-60
2022/06/30 05:18:35;;;;;;;2.83;2.10;;;;;;;;;;5012547;28;20293;-60
2022/06/30 05:21:05;;;;;;;3.70;1.50;;;;;;;;;;5012482;28;20740;-60
2022/06/30 05:23:33;;;;;;;2.20;1.47;;;;;;;;;;5014071;28;20218;-60
2022/06/30 05:28:46;;;;;;;3.90;1.80;;;;;;;;;;5011816;28;20241;-60
2022/06/30 05:31:20;;;;;;;5.00;1.70;;;;;;;;;;5013176;28;20233;-59
2022/06/30 05:33:49;;;;;;;4.33;1.63;;;;;;;;;;5011479;28;21261;-59
2022/06/30 05:36:18;;;;;;;3.20;1.50;;;;;;;;;;5015146;28;20224;-59
2022/06/30 05:38:46;;;;;;;2.87;1.40;;;;;;;;;;5019800;28;20231;-59
2022/06/30 05:41:14;;;;;;;2.53;1.30;;;;;;;;;;5018059;28;20234;-60
2022/06/30 05:43:45;;;;;;;3.90;1.40;;;;;;;;;;5019971;28;20716;-59
2022/06/30 05:46:13;;;;;;;2.37;1.83;;;;;;;;;;5018504;28;20253;-59
2022/06/30 05:48:41;;;;;;;2.77;1.33;;;;;;;;;;5016986;28;20289;-59
2022/06/30 05:51:13;;;;;;;2.30;1.40;;;;;;;;;;5016797;28;20702;-59
2022/06/30 05:53:43;;;;;;;2.93;1.60;;;;;;;;;;5018647;28;20219;-59
2022/06/30 05:56:12;;;;;;;2.93;1.37;;;;;;;;;;5018446;28;20229;-59
2022/06/30 05:58:40;;;;;;;1.60;1.30;;;;;;;;;;5014860;28;20913;-59
2022/06/30 06:01:08;;;;;;;2.77;1.30;;;;;;;;;;5017458;28;20620;-59
2022/06/30 06:03:36;;;;;;;3.83;1.83;;;;;;;;;;5018750;28;20218;-59
2022/06/30 06:06:04;;;;;;;2.73;1.30;;;;;;;;;;5019084;28;20280;-59
2022/06/30 06:08:32;;;;;;;4.00;1.50;;;;;;;;;;5017839;28;20206;-59
2022/06/30 06:11:02;;;;;;;3.47;1.50;;;;;;;;;;5018735;28;20201;-59
2022/06/30 06:13:30;;;;;;;5.33;2.03;;;;;;;;;;5014576;28;20309;-60
2022/06/30 06:15:58;;;;;;;1.50;1.27;;;;;;;;;;5016723;28;20209;-60
2022/06/30 06:18:26;;;;;;;2.53;1.63;;;;;;;;;;5017878;28;20201;-59
2022/06/30 06:20:54;;;;;;;4.83;1.30;;;;;;;;;;5017838;28;20255;-59
2022/06/30 06:23:42;;;;;;;3.80;1.50;;;;;;;;;;5015659;28;20312;-59
2022/06/30 06:26:12;;;;;;;6.20;1.57;;;;;;;;;;5016515;28;20226;-59
2022/06/30 06:31:22;;;;;;;10.17;2.87;;;;;;;;;;5007543;28;20293;-60
2022/06/30 06:33:50;;;;;;;5.43;1.57;;;;;;;;;;5018965;28;20596;-60
2022/06/30 06:36:18;;;;;;;1.97;1.70;;;;;;;;;;5014231;28;20200;-60
2022/06/30 06:38:46;;;;;;;4.17;1.70;;;;;;;;;;5013550;28;20202;-59
2022/06/30 06:41:16;;;;;;;5.20;2.90;;;;;;;;;;5018342;28;20574;-59
2022/06/30 06:43:44;;;;;;;3.70;1.73;;;;;;;;;;5013234;28;20302;-59
2022/06/30 06:46:12;;;;;;;4.37;1.43;;;;;;;;;;5018658;28;20313;-59
2022/06/30 06:48:40;;;;;;;3.43;1.30;;;;;;;;;;5014683;28;20201;-59
2022/06/30 06:51:08;;;;;;;2.63;1.70;;;;;;;;;;5017640;28;20208;-59
2022/06/30 06:53:37;;;;;;;4.47;1.60;;;;;;;;;;5015691;28;20230;-60
2022/06/30 06:56:05;;;;;;;5.13;1.90;;;;;;;;;;5016526;28;20574;-59
2022/06/30 06:58:34;;;;;;;6.83;1.60;;;;;;;;;;5013711;28;20263;-59
2022/06/30 07:01:04;;;;;;;3.83;1.90;;;;;;;;;;5006414;28;20212;-59
2022/06/30 07:03:32;;;;;;;5.10;1.70;;;;;;;;;;5012362;28;20730;-60
2022/06/30 07:06:01;;;;;;;3.40;1.40;;;;;;;;;;5014571;28;20212;-60
2022/06/30 07:08:29;;;;;;;3.40;1.37;;;;;;;;;;5012764;28;20653;-60
2022/06/30 07:10:57;;;;;;;6.60;1.60;;;;;;;;;;5017759;28;20246;-60
2022/06/30 07:13:25;;;;;;;3.23;1.70;;;;;;;;;;5016008;28;20226;-59
2022/06/30 07:15:55;;;;;;;3.03;1.43;;;;;;;;;;5010896;28;20202;-60
2022/06/30 07:18:23;;;;;;;3.80;1.70;;;;;;;;;;5013564;28;20204;-60
2022/06/30 07:20:51;;;;;;;3.83;2.07;;;;;;;;;;5017611;28;20202;-60
2022/06/30 07:23:19;;;;;;;1.93;1.57;;;;;;;;;;5011329;28;20275;-59
2022/06/30 07:25:57;;;;;;;3.97;1.77;;;;;;;;;;5008427;28;20327;-60
2022/06/30 07:28:25;;;;;;;1.50;1.40;;;;;;;;;;5012137;28;20226;-60
2022/06/30 07:31:15;;;;;;;3.13;1.50;;;;;;;;;;5009728;28;20201;-60
2022/06/30 07:33:44;;;;;;;3.63;1.80;;;;;;;;;;5007342;28;20226;-60
2022/06/30 07:36:12;;;;;;;4.23;1.73;;;;;;;;;;5007739;28;20212;-60
2022/06/30 07:38:41;;;;;;;3.80;1.87;;;;;;;;;;5009028;28;20210;-60
2022/06/30 07:41:09;;;;;;;3.53;1.70;;;;;;;;;;4999591;28;20242;-60
2022/06/30 07:43:37;;;;;;;2.50;1.70;;;;;;;;;;5001763;28;20706;-60
2022/06/30 07:46:05;;;;;;;6.30;1.60;;;;;;;;;;5016607;28;20210;-60
2022/06/30 07:48:35;;;;;;;3.00;1.70;;;;;;;;;;5015499;28;20234;-59
2022/06/30 07:51:03;;;;;;;4.53;2.03;;;;;;;;;;5012457;28;20229;-59
2022/06/30 07:53:31;;;;;;;6.77;2.33;;;;;;;;;;5010345;28;20227;-59
2022/06/30 07:55:59;;;;;;;4.70;2.00;;;;;;;;;;5011720;28;20266;-59
2022/06/30 07:58:27;;;;;;;2.33;1.43;;;;;;;;;;5008619;28;20252;-58
2022/06/30 08:00:55;;;;;;;2.10;1.83;;;;;;;;;;5011445;28;20575;-59
2022/06/30 08:03:23;;;;;;;3.37;2.00;;;;;;;;;;5007959;28;20324;-59
2022/06/30 08:05:53;;;;;;;3.70;1.70;;;;;;;;;;4998098;28;20722;-59
2022/06/30 08:08:21;;;;;;;3.40;1.37;;;;;;;;;;4998162;28;20229;-59
2022/06/30 08:10:49;;;;;;;3.87;2.47;;;;;;;;;;4998054;28;20249;-59
2022/06/30 08:13:17;;;;;;;2.90;1.60;;;;;;;;;;4999971;28;20220;-58
2022/06/30 08:15:45;;;;;;;5.43;2.00;;;;;;;;;;5013525;28;20211;-58
2022/06/30 08:18:13;;;;;;;3.57;1.73;;;;;;;;;;4997701;28;20655;-59
2022/06/30 08:20:46;;;;;;;2.50;1.57;;;;;;;;;;5001261;28;20200;-59
2022/06/30 08:23:16;;;;;;;3.33;1.80;;;;;;;;;;5019100;28;20579;-59
2022/06/30 08:25:44;;;;;;;3.77;2.33;;;;;;;;;;4998268;28;20204;-58
2022/06/30 08:28:12;;;;;;;4.03;1.40;;;;;;;;;;5000814;28;20260;-58
2022/06/30 08:30:40;;;;;;;4.43;1.60;;;;;;;;;;4997992;28;20222;-58
2022/06/30 08:33:08;;;;;;;3.73;1.50;;;;;;;;;;5008455;28;20227;-59
2022/06/30 08:35:36;;;;;;;4.57;2.03;;;;;;;;;;5022371;28;20681;-59
2022/06/30 08:38:25;;;;;;;2.70;1.57;;;;;;;;;;5020973;28;20206;-59
2022/06/30 08:43:39;;;;;;;4.37;1.97;;;;;;;;;;5017477;28;20592;-59
2022/06/30 08:46:08;;;;;;;4.43;1.80;;;;;;;;;;5017344;28;20199;-59
2022/06/30 08:48:36;;;;;;;5.77;2.00;;;;;;;;;;5021334;28;20590;-59
2022/06/30 08:51:05;;;;;;;2.73;2.00;;;;;;;;;;5018359;28;20215;-59
2022/06/30 08:53:39;;;;;;;2.40;1.57;;;;;;;;;;5018006;28;20224;-59
2022/06/30 08:56:07;;;;;;;6.90;1.90;;;;;;;;;;5021460;28;20211;-58
2022/06/30 08:58:36;;;;;;;2.47;1.70;;;;;;;;;;5017817;28;20224;-58
2022/06/30 09:01:05;;;;;;;8.50;2.03;;;;;;;;;;5017086;28;20737;-58
2022/06/30 09:03:34;;;;;;;2.40;1.87;;;;;;;;;;5014308;28;20220;-58
2022/06/30 09:06:04;;;;;;;4.30;1.50;;;;;;;;;;5016845;28;20656;-58
2022/06/30 09:08:32;;;;;;;3.93;2.00;;;;;;;;;;5015232;28;20287;-58
2022/06/30 09:11:04;;;;;;;3.67;2.07;;;;;;;;;;5016029;28;20223;-58
2022/06/30 09:13:40;;;;;;;4.57;2.27;;;;;;;;;;5018231;28;20632;-58
2022/06/30 09:16:08;;;;;;;1.97;1.67;;;;;;;;;;5014775;28;20256;-58
2022/06/30 09:18:36;;;;;;;5.83;2.23;;;;;;;;;;5017703;28;20196;-59
2022/06/30 09:21:08;;;;;;;2.37;1.87;;;;;;;;;;5015054;28;20247;-59
2022/06/30 09:23:36;;;;;;;3.60;1.80;;;;;;;;;;5017084;28;20232;-58
2022/06/30 09:26:05;;;;;;;3.40;1.80;;;;;;;;;;5015641;28;20199;-59
2022/06/30 09:28:41;;;;;;;8.13;2.20;;;;;;;;;;5017010;28;20285;-58
2022/06/30 09:31:33;;;;;;;6.83;2.20;;;;;;;;;;5013552;28;20219;-59
2022/06/30 09:34:11;;;;;;;3.37;2.47;;;;;;;;;;5023481;28;20220;-59
2022/06/30 09:36:39;;;;;;;5.13;2.67;;;;;;;;;;5020921;28;20233;-58
2022/06/30 09:39:10;;;;;;;3.10;1.87;;;;;;;;;;5020635;28;20211;-59
2022/06/30 09:41:41;;;;;;;7.30;2.03;;;;;;;;;;5020080;28;20245;-60
2022/06/30 09:44:18;;;;;;;3.43;2.53;;;;;;;;;;5022949;28;20220;-61
2022/06/30 09:46:55;;;;;;;4.03;2.20;;;;;;;;;;5018108;28;20201;-61
2022/06/30 09:49:28;;;;;;;3.27;1.87;;;;;;;;;;5014669;28;20636;-62
2022/06/30 09:51:56;;;;;;;3.87;2.33;;;;;;;;;;5017368;28;20237;-61
2022/06/30 09:54:24;;;;;;;2.23;1.83;;;;;;;;;;5014272;28;20234;-60
2022/06/30 09:57:02;;;;;;;2.33;1.90;;;;;;;;;;5017508;28;20237;-61
2022/06/30 09:59:30;;;;;;;3.37;2.17;;;;;;;;;;5012381;28;20201;-60
2022/06/30 10:01:58;;;;;;;4.30;2.20;;;;;;;;;;5009079;28;20244;-60
2022/06/30 10:04:27;;;;;;;3.00;2.10;;;;;;;;;;5013152;28;20309;-60
2022/06/30 10:06:55;;;;;;;1.87;1.77;;;;;;;;;;5011161;28;20206;-61
2022/06/30 10:09:33;;;;;;;2.90;1.60;;;;;;;;;;5014762;28;20272;-61
2022/06/30 10:12:03;;;;;;;2.70;1.50;;;;;;;;;;5016956;28;20201;-61
2022/06/30 10:14:34;;;;;;;2.50;1.90;;;;;;;;;;5014407;28;20256;-60
2022/06/30 10:17:02;;;;;;;2.07;1.87;;;;;;;;;;5014775;28;20211;-61
2022/06/30 10:19:30;;;;;;;3.40;2.23;;;;;;;;;;5017691;28;20346;-60
2022/06/30 10:21:59;;;;;;;1.90;1.30;;;;;;;;;;5016012;28;20198;-62
2022/06/30 10:24:27;;;;;;;2.47;1.80;;;;;;;;;;5018583;28;20228;-60
2022/06/30 10:27:14;;;;;;;2.37;1.77;;;;;;;;;;5015583;28;20207;-59
2022/06/30 10:29:45;;;;;;;2.63;1.63;;;;;;;;;;5015904;28;20308;-59
2022/06/30 10:32:20;;;;;;;2.37;1.67;;;;;;;;;;5000447;28;20211;-60
2022/06/30 10:34:55;;;;;;;2.05;1.65;;;;;;;;;;5010685;28;20225;-61
2022/06/30 10:37:27;;;;;;;3.80;1.90;;;;;;;;;;5007120;28;20208;-59
2022/06/30 10:39:57;;;;;;;4.38;1.95;;;;;;;;;;5019188;28;20250;-59
2022/06/30 10:42:45;;;;;;;3.67;1.90;;;;;;;;;;5019309;28;20240;-59
2022/06/30 10:45:31;;;;;;;2.30;1.97;;;;;;;;;;5012358;28;20296;-59
2022/06/30 10:48:02;;;;;;;4.27;1.83;;;;;;;;;;4999494;28;20246;-59
2022/06/30 10:50:30;;;;;;;2.27;1.90;;;;;;;;;;5016836;28;20194;-59
2022/06/30 10:52:58;;;;;;;2.87;1.90;;;;;;;;;;5015273;28;20221;-59
2022/06/30 10:55:26;;;;;;;3.53;2.17;;;;;;;;;;5015782;28;20270;-59
2022/06/30 10:58:06;;;;;;;2.63;1.87;;;;;;;;;;5012700;28;20613;-59
2022/06/30 11:00:59;;;;;;;3.20;2.20;;;;;;;;;;5013337;28;20211;-59
2022/06/30 11:03:42;;;;;;;3.53;1.87;;;;;;;;;;5016175;28;20237;-59
2022/06/30 11:06:13;;;;;;;3.30;1.70;;;;;;;;;;5009449;28;20581;-59
2022/06/30 11:08:50;;;;;;;5.27;2.00;;;;;;;;;;5017255;28;20250;-59
2022/06/30 11:11:36;;;;;;;5.10;2.17;;;;;;;;;;5015814;28;20207;-59
2022/06/30 11:14:23;;;;;;;2.17;1.97;;;;;;;;;;5015746;28;20262;-59
2022/06/30 11:16:51;;;;;;;3.58;1.92;;;;;;;;;;5017356;28;20215;-59
2022/06/30 11:19:23;;;;;;;3.67;2.00;;;;;;;;;;5017576;28;20208;-59
2022/06/30 11:21:54;;;;;;;3.03;2.28;;;;;;;;;;5014816;28;20208;-59
2022/06/30 11:24:22;;;;;;;4.43;2.42;;;;;;;;;;5017597;28;20228;-59
2022/06/30 11:29:39;;;;;;;2.53;2.10;;;;;;;;;;5014952;28;20224;-59
2022/06/30 11:32:08;;;;;;;9.77;2.45;;;;;;;;;;5011926;28;20687;-59
2022/06/30 11:34:38;;;;;;;3.30;2.63;;;;;;;;;;5009159;28;20223;-59
2022/06/30 11:37:07;;;;;;;2.73;2.53;;;;;;;;;;5010500;28;20211;-60
2022/06/30 11:39:35;;;;;;;2.30;1.90;;;;;;;;;;5009973;28;20233;-59
2022/06/30 11:42:07;;;;;;;4.33;2.13;;;;;;;;;;5009139;28;20236;-59
2022/06/30 11:44:38;;;;;;;4.33;1.90;;;;;;;;;;5005102;28;20227;-59
2022/06/30 11:47:06;;;;;;;4.27;1.93;;;;;;;;;;5008502;28;20204;-60
2022/06/30 11:49:42;;;;;;;2.20;2.00;;;;;;;;;;5013273;28;20243;-60
2022/06/30 11:52:15;;;;;;;3.80;2.03;;;;;;;;;;5016102;28;20272;-60
2022/06/30 11:54:44;;;;;;;5.57;2.37;;;;;;;;;;5009788;28;20225;-59
2022/06/30 11:57:12;;;;;;;3.77;2.23;;;;;;;;;;5002533;28;20640;-60
2022/06/30 11:59:46;;;;;;;8.02;2.10;;;;;;;;;;5011466;28;20289;-59
2022/06/30 12:02:14;;;;;;;3.33;1.95;;;;;;;;;;5010975;28;20253;-58
2022/06/30 12:04:43;;;;;;;7.25;2.05;;;;;;;;;;5003139;28;20226;-58
2022/06/30 12:07:14;;;;;;;3.80;2.40;;;;;;;;;;5002511;28;20200;-58
2022/06/30 12:09:42;;;;;;;3.17;2.20;;;;;;;;;;4997412;28;20257;-58
2022/06/30 12:12:11;;;;;;;2.13;1.77;;;;;;;;;;4998358;28;20209;-58
2022/06/30 12:14:45;;;;;;;2.83;2.20;;;;;;;;;;4998359;28;20235;-59
2022/06/30 12:17:13;;;;;;;4.22;2.17;;;;;;;;;;4998656;28;20275;-58
2022/06/30 12:19:42;;;;;;;7.00;1.92;;;;;;;;;;4997973;28;20697;-58
2022/06/30 12:22:12;;;;;;;2.72;1.67;;;;;;;;;;4998380;28;20291;-58
2022/06/30 12:24:41;;;;;;;3.63;2.20;;;;;;;;;;5008527;28;20225;-58
2022/06/30 12:27:09;;;;;;;4.85;1.98;;;;;;;;;;4997869;28;20245;-58
2022/06/30 12:29:37;;;;;;;4.47;1.90;;;;;;;;;;4997848;28;20773;-58
2022/06/30 12:32:07;;;;;;;2.65;1.92;;;;;;;;;;4998092;28;20249;-58
2022/06/30 12:34:49;;;;;;;3.63;2.17;;;;;;;;;;5016237;28;20220;-58
2022/06/30 12:37:26;;;;;;;2.65;1.90;;;;;;;;;;4998818;28;20218;-58
2022/06/30 12:39:56;;;;;;;4.93;2.15;;;;;;;;;;4997889;28;20295;-58
2022/06/30 12:42:24;;;;;;;4.72;1.90;;;;;;;;;;4997901;28;20223;-58
2022/06/30 12:44:52;;;;;;;4.18;1.70;;;;;;;;;;5013322;28;20227;-58
2022/06/30 12:47:22;;;;;;;4.32;2.15;;;;;;;;;;5017613;28;20659;-58
2022/06/30 12:49:50;;;;;;;3.53;2.33;;;;;;;;;;5017061;28;20233;-58
2022/06/30 12:52:20;;;;;;;4.97;1.80;;;;;;;;;;5017847;28;20210;-58
2022/06/30 12:54:55;;;;;;;2.75;1.58;;;;;;;;;;5013920;28;20224;-59
2022/06/30 12:57:26;;;;;;;4.85;1.83;;;;;;;;;;5008795;28;21248;-58
2022/06/30 12:59:55;;;;;;;3.92;1.50;;;;;;;;;;5013521;28;20208;-58
2022/06/30 13:02:34;;;;;;;3.50;2.10;;;;;;;;;;5008652;28;20262;-58
2022/06/30 13:05:02;;;;;;;2.95;1.80;;;;;;;;;;5009008;28;20714;-58
2022/06/30 13:07:32;;;;;;;2.40;1.83;;;;;;;;;;5009685;28;20204;-58
2022/06/30 13:10:00;;;;;;;2.38;1.52;;;;;;;;;;5009046;28;20228;-58
2022/06/30 13:12:28;;;;;;;5.35;1.80;;;;;;;;;;5008796;28;20204;-58
2022/06/30 13:14:56;;;;;;;2.25;1.83;;;;;;;;;;5009010;28;20251;-58
2022/06/30 13:17:24;;;;;;;2.10;1.80;;;;;;;;;;5010047;28;20201;-58
2022/06/30 13:19:52;;;;;;;1.90;1.75;;;;;;;;;;5009058;28;20207;-58
2022/06/30 13:22:20;;;;;;;6.00;1.90;;;;;;;;;;5013056;28;20203;-58
2022/06/30 13:24:49;;;;;;;4.60;1.60;;;;;;;;;;5012744;28;20251;-58
2022/06/30 13:27:17;;;;;;;7.40;2.45;;;;;;;;;;5013079;28;20262;-61
2022/06/30 13:29:46;;;;;;;4.10;1.75;;;;;;;;;;5019805;28;20232;-61
2022/06/30 13:32:14;;;;;;;2.78;2.00;;;;;;;;;;5016761;28;20631;-62
2022/06/30 13:34:43;;;;;;;2.90;1.40;;;;;;;;;;5020038;28;20232;-62
2022/06/30 13:37:11;;;;;;;5.35;1.90;;;;;;;;;;5018368;28;20283;-63
2022/06/30 13:39:39;;;;;;;3.13;1.52;;;;;;;;;;5016416;28;20692;-63
2022/06/30 13:42:09;;;;;;;1.40;1.30;;;;;;;;;;5016255;28;20229;-62
2022/06/30 13:44:38;;;;;;;5.97;1.87;;;;;;;;;;5017130;28;20253;-62
2022/06/30 13:47:06;;;;;;;5.30;1.60;;;;;;;;;;5018712;28;20208;-63
2022/06/30 13:49:35;;;;;;;2.90;1.40;;;;;;;;;;5015080;28;20290;-62
2022/06/30 13:52:04;;;;;;;4.10;1.57;;;;;;;;;;5016742;28;20240;-62
2022/06/30 13:54:32;;;;;;;4.50;1.43;;;;;;;;;;5016545;28;20253;-62
2022/06/30 13:57:07;;;;;;;3.53;1.47;;;;;;;;;;5018579;28;20243;-62
2022/06/30 13:59:37;;;;;;;2.13;1.23;;;;;;;;;;5015581;28;20199;-62
2022/06/30 14:02:06;;;;;;;1.33;1.00;;;;;;;;;;5019266;28;20203;-62
2022/06/30 14:04:34;;;;;;;4.63;1.23;;;;;;;;;;5015312;28;20234;-62
2022/06/30 14:07:03;;;;;;;1.73;0.93;;;;;;;;;;5020198;28;20246;-62
2022/06/30 14:09:31;;;;;;;4.77;0.87;;;;;;;;;;5000469;28;20218;-62
2022/06/30 14:12:01;;;;;;;3.90;1.13;;;;;;;;;;4999804;28;20723;-62
2022/06/30 14:14:29;;;;;;;2.67;2.03;;;;;;;;;;5006800;28;20731;-62
2022/06/30 14:16:59;;;;;;;1.10;0.70;;;;;;;;;;5003363;28;20238;-63
2022/06/30 14:19:28;;;;;;;3.03;1.00;;;;;;;;;;5015609;28;20219;-64
2022/06/30 14:21:56;;;;;;;1.83;0.60;;;;;;;;;;5003865;28;20613;-63
2022/06/30 14:24:25;;;;;;;0.93;0.80;;;;;;;;;;5017205;28;20276;-63
2022/06/30 14:26:53;;;;;;;3.20;0.80;;;;;;;;;;5016427;28;20245;-62
2022/06/30 14:29:21;;;;;;;1.10;0.80;;;;;;;;;;4999779;28;20276;-63
2022/06/30 14:31:50;;;;;;;3.80;0.80;;;;;;;;;;4999956;28;20266;-63
2022/06/30 14:34:22;;;;;;;1.17;0.70;;;;;;;;;;5013592;28;20771;-63
2022/06/30 14:36:51;;;;;;;1.77;0.90;;;;;;;;;;5001702;28;20226;-63
2022/06/30 14:39:20;;;;;;;0.70;0.60;;;;;;;;;;5000105;28;20249;-62
2022/06/30 14:44:34;;;;;;;0.93;0.70;;;;;;;;;;5014331;28;20229;-63
2022/06/30 14:47:02;;;;;;;4.00;0.83;;;;;;;;;;5015969;28;20256;-63
2022/06/30 14:49:32;;;;;;;3.20;0.77;;;;;;;;;;5016313;28;20197;-63
2022/06/30 14:52:00;;;;;;;1.10;0.87;;;;;;;;;;5013510;28;20224;-63
2022/06/30 14:54:28;;;;;;;1.47;0.90;;;;;;;;;;5019305;28;20228;-63
2022/06/30 14:56:56;;;;;;;2.87;1.57;;;;;;;;;;5009100;28;20210;-64
2022/06/30 14:59:25;;;;;;;5.27;1.10;;;;;;;;;;4999214;28;20739;-65
2022/06/30 15:01:53;;;;;;;1.07;0.63;;;;;;;;;;5010258;28;20232;-64
2022/06/30 15:04:21;;;;;;;2.23;0.87;;;;;;;;;;5001348;28;20246;-63
2022/06/30 15:06:56;;;;;;;3.40;0.83;;;;;;;;;;4999227;28;20576;-62
2022/06/30 15:09:26;;;;;;;2.00;0.67;;;;;;;;;;5000837;28;20209;-65
2022/06/30 15:11:54;;;;;;;3.33;0.70;;;;;;;;;;5006990;28;20256;-65
2022/06/30 15:14:22;;;;;;;2.20;0.70;;;;;;;;;;5019070;28;20232;-64
2022/06/30 15:16:51;;;;;;;1.17;0.47;;;;;;;;;;5018853;28;20215;-65
2022/06/30 15:19:21;;;;;;;1.30;0.57;;;;;;;;;;5018362;28;20258;-64